• Join FlightAware (Why Join?)
  • Login
  • US Flag 
02:31AM EST


 

Airport Tracker/Info


-or-


 

Live Flight TrackerFlight Track Log ✈ DAL6035 ✈ 11-Apr-2013 ✈ KLGA - KMHT

Flight Track Log - Related Links

Times and Time Zones

All times are in EDT time to prevent confusion due to time zone crossing. See the DAL6035 flight status page for this flight to view local times or setup timezone preferences in your user account.

Time Position Orientation Groundspeed Altitude Reporting Facility
EDT Latitude Longitude Course Direction KTS MPH feet Rate Location/Type
11:51AM 40.7333 -73.8167 39° Northeast 202 232 2,100  Level New York TRACON
11:52AM 40.7833 -73.7833 27° Northeast 222 255 3,800 1,860 Climbing New York TRACON
11:54AM 40.9364 -73.7122 19° North 263 303 8,300 1,980 Climbing Boston Center
11:56AM 40.9994 -73.6611 31° Northeast 285 328 10,400 1,680 Climbing Boston Center
11:57AM 41.2031 -73.4084 39° Northeast  Level Estimated
11:57AM 41.0897 -73.5967 28° Northeast 314 361 11,800  Level Boston Center
11:58AM 41.1697 -73.5403 28° Northeast 342 394 13,300 1,620 Climbing Boston Center
11:58AM 41.2703 -73.4731 27° Northeast 357 411 15,000 1,440 Climbing Boston Center
12:00PM 41.3600 -73.4633 North 350 403 16,500 1,500 Climbing Boston Center
12:01PM 41.4808 -73.4569 North 355 409 18,400 1,200 Climbing Boston Center
12:02PM 41.5936 -73.4478 North 365 420 19,000 660 Climbing Boston Center
12:03PM 41.7019 -73.4411 North 365 420 19,700 900 Climbing Boston Center
12:04PM 41.8061 -73.4344 North 371 427 20,800 600 Climbing Boston Center
12:05PM 41.9083 -73.4275 North 371 427 21,000 60 Climbing Boston Center
12:06PM 42.0147 -73.4208 North 371 427 21,000  Level Boston Center
12:07PM 42.1461 -73.4006 North 377 434 21,000  Level Boston Center
12:08PM 42.2367 -73.3178 34° Northeast 383 441 21,000 -60 Level Boston Center
12:09PM 42.3083 -73.1897 53° Northeast 393 452 20,900 -660 Descending Boston Center
12:10PM 42.3842 -73.0528 53° Northeast 419 482 19,700 -960 Descending Boston Center
12:11PM 42.4536 -72.9214 54° Northeast 429 494 19,000 -360 Descending Boston Center
12:12PM 42.5164 -72.8092 53° Northeast 423 487 19,000  Level Boston Center
12:13PM 42.5836 -72.6825 54° Northeast 416 479 19,000 -480 Level Boston Center
12:14PM 42.6525 -72.5614 52° Northeast 411 473 18,100 -1,620 Descending Boston Center
12:15PM 42.7150 -72.4400 55° Northeast 401 461 15,800 -2,340 Descending Boston Center
12:16PM 42.7797 -72.3214 53° Northeast 396 456 13,500 -2,340 Descending Boston Center
12:17PM 42.8044 -72.1628 78° East 380 437 11,100 -1,920 Descending Boston Center
12:18PM 42.8144 -72.0239 84° East 373 429 9,800 -1,320 Descending Boston Center
12:19PM 42.8117 -71.8939 92° East 354 407 8,500 -1,260 Descending Boston Center
12:20PM 42.8050 -71.7808 95° East 311 358 7,300 -1,200 Descending Boston Center
12:21PM 42.7833 -71.6792 106° East 284 327 6,100 -1,200 Descending Boston Center
12:22PM 42.7661 -71.5889 105° East 256 295 5,000 -1,020 Descending Boston Center
12:23PM 42.7508 -71.5100 105° East 245 282 4,100 -660 Descending Boston Center
12:24PM 42.7417 -71.4194 98° East 226 260 3,700 -600 Descending Boston Center
12:25PM 42.7661 -71.3483 65° Northeast 214 246 2,900 -840 Descending Boston Center
12:26PM 42.8247 -71.3728 343° North 148 170 2,100 -720 Descending Boston Center
12:27PM 42.8644 -71.3947 338° Northwest 161 185 1,500 -720 Descending Boston Center
12:28PM 42.9044 -71.4197 335° Northwest 150 173 700 -840 Descending Boston Center